Time;durP1;ratioP1;P1;durP2;ratioP2;P2;SDS_P1;SDS_P2;PMS_P1;PMS_P2;Temp;Humidity;BMP_temperature;BMP_pressure;BME280_temperature;BME280_humidity;BME280_pressure;Samples;Min_cycle;Max_cycle;Signal;HPM_P1;HPM_P2
2022/12/11 00:01:24;;;;;;;48.77;19.53;;;0.20;99.90;;;;;;5071692;28;20193;-79
2022/12/11 00:03:50;;;;;;;52.47;19.53;;;0.10;99.90;;;;;;5070204;28;20626;-76
2022/12/11 00:06:18;;;;;;;39.97;16.40;;;0.10;99.90;;;;;;5079385;28;20221;-76
2022/12/11 00:08:44;;;;;;;50.03;19.40;;;0.10;99.90;;;;;;5069735;28;20183;-77
2022/12/11 00:11:16;;;;;;;57.30;21.42;;;0.10;99.90;;;;;;5056567;28;20735;-76
2022/12/11 00:13:42;;;;;;;51.67;19.47;;;0.20;99.90;;;;;;5045752;28;20182;-76
2022/12/11 00:16:09;;;;;;;59.78;21.40;;;0.20;99.90;;;;;;5070010;28;20204;-77
2022/12/11 00:18:35;;;;;;;43.37;15.53;;;0.20;99.90;;;;;;5066300;28;20188;-77
2022/12/11 00:21:06;;;;;;;54.67;19.33;;;0.20;99.90;;;;;;5067612;28;20267;-74
2022/12/11 00:23:34;;;;;;;55.10;19.83;;;0.20;99.90;;;;;;5067637;28;20186;-75
2022/12/11 00:26:05;;;;;;;48.60;18.63;;;0.20;99.90;;;;;;5065730;28;20264;-76
2022/12/11 00:28:32;;;;;;;47.27;18.07;;;0.20;99.90;;;;;;5062304;28;20183;-76
2022/12/11 00:30:57;;;;;;;56.57;19.57;;;0.20;99.90;;;;;;5071725;28;20252;-76
2022/12/11 00:33:25;;;;;;;50.67;17.43;;;0.20;99.90;;;;;;5069515;28;20187;-77
2022/12/11 00:35:51;;;;;;;52.37;19.70;;;0.20;99.90;;;;;;5067405;28;20233;-75
2022/12/11 00:38:19;;;;;;;47.33;17.83;;;0.30;99.90;;;;;;5063866;28;20543;-77
2022/12/11 00:40:45;;;;;;;42.50;16.63;;;0.30;99.90;;;;;;5072775;28;20191;-74
2022/12/11 00:43:11;;;;;;;46.10;17.07;;;0.30;99.90;;;;;;5060215;28;20577;-76
2022/12/11 00:45:41;;;;;;;51.93;17.47;;;0.30;99.90;;;;;;5061609;28;20294;-75
2022/12/11 00:48:08;;;;;;;44.37;16.70;;;0.30;99.90;;;;;;5053177;28;20221;-74
2022/12/11 00:50:35;;;;;;;49.58;17.58;;;0.30;99.90;;;;;;5069562;28;20184;-77
2022/12/11 00:53:01;;;;;;;53.67;18.85;;;0.40;99.90;;;;;;5062802;28;20642;-77
2022/12/11 00:55:28;;;;;;;50.23;18.43;;;0.40;99.90;;;;;;5061628;28;20201;-75
2022/12/11 00:57:54;;;;;;;50.00;18.23;;;0.40;99.90;;;;;;5066478;28;20191;-75
2022/12/11 01:00:21;;;;;;;49.57;17.43;;;0.50;99.90;;;;;;5064814;28;20297;-74
2022/12/11 01:02:48;;;;;;;41.17;15.25;;;0.50;99.90;;;;;;5071440;28;20186;-75
2022/12/11 01:05:14;;;;;;;45.63;17.27;;;0.50;99.90;;;;;;5071391;28;20178;-75
2022/12/11 01:07:39;;;;;;;49.97;17.10;;;0.40;99.90;;;;;;5065862;28;20188;-75
2022/12/11 01:10:23;;;;;;;49.60;17.58;;;0.50;99.90;;;;;;5065885;28;20217;-75
2022/12/11 01:13:01;;;;;;;48.33;16.88;;;0.50;99.90;;;;;;5072163;28;20202;-76
2022/12/11 01:15:30;;;;;;;48.90;17.53;;;0.50;99.90;;;;;;5083636;28;20265;-75
2022/12/11 01:17:56;;;;;;;46.97;17.17;;;0.50;99.90;;;;;;5070072;28;20179;-76
2022/12/11 01:20:24;;;;;;;49.70;18.73;;;0.50;99.90;;;;;;5067437;28;20263;-74
2022/12/11 01:22:52;;;;;;;51.67;17.13;;;0.60;99.90;;;;;;5072044;28;20234;-76
2022/12/11 01:25:18;;;;;;;46.95;17.10;;;0.50;99.90;;;;;;5067694;28;20532;-76
2022/12/11 01:27:44;;;;;;;53.47;18.20;;;0.60;99.90;;;;;;5069550;28;20197;-76
2022/12/11 01:30:10;;;;;;;47.20;17.83;;;0.50;99.90;;;;;;5072177;28;20190;-76
2022/12/11 01:32:36;;;;;;;48.60;17.92;;;0.60;99.90;;;;;;5068670;28;20221;-74
2022/12/11 01:35:04;;;;;;;46.55;17.42;;;0.60;99.90;;;;;;5070777;28;20194;-76
2022/12/11 01:37:30;;;;;;;57.65;19.33;;;0.60;99.90;;;;;;5066403;28;20183;-74
2022/12/11 01:39:55;;;;;;;54.87;19.27;;;0.70;99.90;;;;;;5072583;28;20197;-75
2022/12/11 01:42:21;;;;;;;55.67;18.70;;;0.70;99.90;;;;;;5075338;28;20183;-78
2022/12/11 01:44:47;;;;;;;55.80;19.48;;;0.70;99.90;;;;;;5070108;28;20182;-76
2022/12/11 01:47:13;;;;;;;58.90;20.58;;;0.70;99.90;;;;;;5072947;28;20621;-76
2022/12/11 01:49:39;;;;;;;49.30;18.67;;;0.70;99.90;;;;;;5065425;28;20201;-76
2022/12/11 01:52:11;;;;;;;56.58;19.15;;;0.70;99.90;;;;;;5072816;28;20257;-75
2022/12/11 01:54:37;;;;;;;57.10;20.07;;;0.70;99.90;;;;;;5070644;28;20232;-75
2022/12/11 01:57:05;;;;;;;61.05;19.88;;;0.70;99.90;;;;;;5074122;28;20183;-76
2022/12/11 01:59:36;;;;;;;69.43;22.13;;;0.80;99.90;;;;;;5073308;28;20566;-75
2022/12/11 02:02:25;;;;;;;67.80;21.73;;;0.80;99.90;;;;;;5071299;28;20189;-75
2022/12/11 02:04:50;;;;;;;59.90;20.67;;;0.70;99.90;;;;;;5073273;28;20178;-74
2022/12/11 02:07:16;;;;;;;56.03;20.20;;;0.70;99.90;;;;;;5084192;28;20181;-77
2022/12/11 02:09:45;;;;;;;59.10;21.47;;;0.70;99.90;;;;;;5086913;28;20673;-76
2022/12/11 02:12:38;;;;;;;60.67;20.30;;;0.80;99.90;;;;;;5074489;28;20662;-76
2022/12/11 02:15:37;;;;;;;59.97;21.30;;;0.80;99.90;;;;;;5070544;28;20623;-77
2022/12/11 02:18:45;;;;;;;57.33;21.33;;;0.80;99.90;;;;;;5074063;28;20561;-76
2022/12/11 02:21:24;;;;;;;58.30;19.67;;;0.80;99.90;;;;;;5070758;28;20183;-78
2022/12/11 02:24:05;;;;;;;68.70;21.90;;;0.80;99.90;;;;;;5072883;28;20630;-76
2022/12/11 02:27:12;;;;;;;65.63;20.83;;;0.80;99.90;;;;;;5072341;28;20240;-76
2022/12/11 02:29:48;;;;;;;63.77;21.80;;;0.80;99.90;;;;;;5066447;28;20563;-78
2022/12/11 02:32:30;;;;;;;60.47;20.27;;;0.90;99.90;;;;;;5074704;28;20186;-75
2022/12/11 02:35:23;;;;;;;60.77;20.57;;;0.90;99.90;;;;;;5070751;28;20557;-75
2022/12/11 02:37:57;;;;;;;57.20;21.05;;;0.80;99.90;;;;;;5072837;28;20602;-75
2022/12/11 02:40:27;;;;;;;63.60;21.23;;;0.90;99.90;;;;;;5069434;28;20182;-75
2022/12/11 02:42:56;;;;;;;69.23;21.63;;;0.90;99.90;;;;;;5072859;28;20197;-75
2022/12/11 02:45:25;;;;;;;68.15;21.83;;;0.90;99.90;;;;;;5073059;28;20187;-76
2022/12/11 02:47:51;;;;;;;69.40;21.95;;;0.90;99.90;;;;;;5073579;28;20649;-76
2022/12/11 02:50:20;;;;;;;71.13;23.23;;;0.90;99.90;;;;;;5085846;28;20273;-75
2022/12/11 02:52:49;;;;;;;77.13;21.90;;;0.90;99.90;;;;;;5064472;28;20227;-75
2022/12/11 02:55:16;;;;;;;63.37;20.27;;;0.90;99.90;;;;;;5071075;28;20258;-75
2022/12/11 02:57:58;;;;;;;73.10;22.05;;;0.90;99.90;;;;;;5072062;28;20229;-74
2022/12/11 03:00:24;;;;;;;71.80;22.90;;;0.90;99.90;;;;;;5073758;28;20243;-75
2022/12/11 03:02:50;;;;;;;60.55;21.15;;;1.00;99.90;;;;;;5071287;28;20194;-75
2022/12/11 03:05:16;;;;;;;59.13;19.60;;;1.00;99.90;;;;;;5071200;28;20529;-76
2022/12/11 03:07:43;;;;;;;60.80;19.95;;;0.90;99.90;;;;;;5068401;28;20187;-78
2022/12/11 03:10:13;;;;;;;71.90;22.30;;;0.90;99.90;;;;;;5057337;28;20221;-76
2022/12/11 03:12:43;;;;;;;64.97;21.48;;;1.00;99.90;;;;;;5071464;28;20198;-79
2022/12/11 03:15:14;;;;;;;69.82;21.83;;;1.00;99.90;;;;;;5070456;28;20583;-75
2022/12/11 03:17:40;;;;;;;67.45;22.25;;;1.00;99.90;;;;;;5074251;28;20665;-75
2022/12/11 03:20:05;;;;;;;73.95;21.10;;;1.00;99.90;;;;;;5070123;28;20206;-75
2022/12/11 03:22:47;;;;;;;63.33;20.83;;;1.00;99.90;;;;;;5072833;28;20186;-75
2022/12/11 03:25:22;;;;;;;63.20;20.80;;;1.00;99.90;;;;;;5065919;28;20260;-75
2022/12/11 03:28:16;;;;;;;62.97;20.80;;;1.00;99.90;;;;;;5073884;28;20167;-76
2022/12/11 03:30:44;;;;;;;57.28;18.38;;;1.00;99.90;;;;;;5065585;28;20250;-75
2022/12/11 03:33:18;;;;;;;57.00;19.13;;;1.10;99.90;;;;;;5053914;28;20226;-82
2022/12/11 03:35:52;;;;;;;60.60;19.98;;;1.10;99.90;;;;;;5069564;28;20277;-75
2022/12/11 03:38:28;;;;;;;63.63;20.50;;;1.10;99.90;;;;;;5070630;28;20235;-76
2022/12/11 03:40:57;;;;;;;64.43;20.90;;;1.10;99.90;;;;;;5065479;28;20232;-76
2022/12/11 03:43:24;;;;;;;58.80;19.15;;;1.10;99.90;;;;;;5072481;28;20174;-76
2022/12/11 03:45:52;;;;;;;69.20;21.70;;;1.10;99.90;;;;;;5068421;28;20187;-77
2022/12/11 03:48:19;;;;;;;62.72;19.90;;;1.10;99.90;;;;;;5071912;28;20205;-75
2022/12/11 03:50:46;;;;;;;62.97;18.63;;;1.10;99.90;;;;;;5057540;28;20179;-75
2022/12/11 03:53:12;;;;;;;61.53;19.05;;;1.10;99.90;;;;;;5069498;28;20175;-79
2022/12/11 03:55:40;;;;;;;70.45;21.45;;;1.10;99.90;;;;;;5063431;28;20184;-76
2022/12/11 03:58:06;;;;;;;72.00;22.08;;;1.10;99.90;;;;;;5054010;28;20183;-75
2022/12/11 04:00:32;;;;;;;64.28;18.38;;;1.10;99.90;;;;;;5068459;28;20186;-75
2022/12/11 04:03:12;;;;;;;63.92;20.40;;;1.10;99.90;;;;;;5055823;28;20183;-75
2022/12/11 04:05:40;;;;;;;64.10;21.45;;;1.10;99.90;;;;;;5074482;28;20183;-74
2022/12/11 04:08:06;;;;;;;58.03;19.83;;;1.10;99.90;;;;;;5073269;28;20179;-75
2022/12/11 04:10:32;;;;;;;64.82;20.83;;;1.10;99.90;;;;;;5071115;28;20182;-75
2022/12/11 04:12:57;;;;;;;59.17;19.55;;;1.10;99.90;;;;;;5068949;28;20211;-75
2022/12/11 04:15:23;;;;;;;59.40;20.60;;;1.10;99.90;;;;;;5068246;28;20199;-75
2022/12/11 04:26:15;;;;;;;56.03;19.00;;;1.20;99.90;;;;;;5065861;28;20630;-75
2022/12/11 04:28:42;;;;;;;58.88;19.85;;;1.20;99.90;;;;;;5064211;28;20186;-74
2022/12/11 04:31:16;;;;;;;62.92;20.38;;;1.20;99.90;;;;;;5070882;28;20218;-74
2022/12/11 04:33:42;;;;;;;53.88;18.88;;;1.20;99.90;;;;;;5067581;28;20549;-77
2022/12/11 04:36:09;;;;;;;61.70;19.92;;;1.20;99.90;;;;;;5072061;28;20267;-76
2022/12/11 04:38:34;;;;;;;63.85;19.65;;;1.30;99.90;;;;;;5069213;28;20183;-76
2022/12/11 04:41:06;;;;;;;57.53;19.48;;;1.20;99.90;;;;;;5072182;28;20192;-76
2022/12/11 04:43:32;;;;;;;59.40;19.60;;;1.30;99.90;;;;;;5069643;28;20184;-76
2022/12/11 04:46:02;;;;;;;49.78;17.48;;;1.30;99.90;;;;;;5085032;28;20198;-78
2022/12/11 04:48:28;;;;;;;52.83;17.77;;;1.30;99.90;;;;;;5068436;28;20201;-76
2022/12/11 04:50:54;;;;;;;54.28;19.52;;;1.30;99.90;;;;;;5068657;28;20642;-76
2022/12/11 04:53:19;;;;;;;58.28;20.23;;;1.30;99.90;;;;;;5059982;28;20202;-76
2022/12/11 04:55:45;;;;;;;56.20;19.83;;;1.30;99.90;;;;;;5071564;28;20608;-76
2022/12/11 04:58:11;;;;;;;55.38;19.00;;;1.30;99.90;;;;;;5067672;28;20293;-79
2022/12/11 05:00:36;;;;;;;57.50;19.63;;;1.30;99.90;;;;;;5070335;28;20634;-77
2022/12/11 05:03:02;;;;;;;62.88;18.98;;;1.30;99.90;;;;;;5071977;28;20190;-76
2022/12/11 05:05:28;;;;;;;54.15;19.13;;;1.30;99.90;;;;;;5068405;28;20277;-76
2022/12/11 05:07:53;;;;;;;55.03;19.35;;;1.40;99.90;;;;;;5072486;28;20210;-75
2022/12/11 05:10:19;;;;;;;59.50;19.40;;;1.30;99.90;;;;;;5066659;28;20552;-75
2022/12/11 05:12:45;;;;;;;57.35;20.80;;;1.40;99.90;;;;;;5057143;28;20210;-75
2022/12/11 05:15:10;;;;;;;64.93;19.58;;;1.40;99.90;;;;;;5067288;28;20277;-75
2022/12/11 05:17:36;;;;;;;51.83;19.42;;;1.40;99.90;;;;;;5059360;28;20263;-76
2022/12/11 05:20:03;;;;;;;61.20;20.30;;;1.40;99.90;;;;;;5066218;28;20587;-77
2022/12/11 05:22:30;;;;;;;57.25;20.13;;;1.40;99.90;;;;;;5071283;28;20205;-77
2022/12/11 05:24:56;;;;;;;56.28;18.40;;;1.40;99.90;;;;;;5070865;28;20303;-75
2022/12/11 05:27:22;;;;;;;61.90;19.23;;;1.40;99.90;;;;;;5070572;28;20316;-75
2022/12/11 05:29:48;;;;;;;54.42;19.20;;;1.40;99.90;;;;;;5067773;28;20236;-74
2022/12/11 05:32:13;;;;;;;54.28;19.42;;;1.40;99.90;;;;;;5071530;28;20206;-75
2022/12/11 05:34:39;;;;;;;54.55;19.65;;;1.50;99.90;;;;;;5068117;28;20553;-75
2022/12/11 05:37:06;;;;;;;47.90;18.52;;;1.50;99.90;;;;;;5071884;28;20176;-75
2022/12/11 05:39:32;;;;;;;54.63;19.90;;;1.40;99.90;;;;;;5068528;28;20197;-75
2022/12/11 05:41:57;;;;;;;50.88;18.77;;;1.40;99.90;;;;;;5068575;28;20182;-74
2022/12/11 05:44:24;;;;;;;58.35;18.77;;;1.50;99.90;;;;;;5062882;28;20177;-78
2022/12/11 05:46:49;;;;;;;52.00;19.13;;;1.40;99.90;;;;;;5071780;28;20182;-74
2022/12/11 05:49:15;;;;;;;57.72;18.75;;;1.50;99.90;;;;;;5069364;28;20268;-74
2022/12/11 05:51:42;;;;;;;60.25;19.70;;;1.50;99.90;;;;;;5065742;28;20214;-75
2022/12/11 05:54:09;;;;;;;57.65;18.63;;;1.50;99.90;;;;;;5066024;28;20646;-75
2022/12/11 05:56:35;;;;;;;58.95;18.95;;;1.50;99.90;;;;;;5071783;28;20200;-75
2022/12/11 05:59:02;;;;;;;47.53;18.63;;;1.50;99.90;;;;;;5069811;28;20179;-75
2022/12/11 06:01:36;;;;;;;53.25;16.50;;;1.50;99.90;;;;;;5069597;28;20244;-76
2022/12/11 06:04:04;;;;;;;56.95;19.60;;;1.50;99.90;;;;;;5068454;28;20649;-76
2022/12/11 06:06:30;;;;;;;53.50;18.75;;;1.40;99.90;;;;;;5089830;28;20178;-75
2022/12/11 06:08:57;;;;;;;52.92;18.90;;;1.40;99.90;;;;;;5074377;28;20231;-75
2022/12/11 06:11:24;;;;;;;62.90;19.63;;;1.40;99.90;;;;;;5069233;28;20297;-75
2022/12/11 06:13:51;;;;;;;53.30;19.60;;;1.40;99.90;;;;;;5069215;28;20652;-77
2022/12/11 06:16:17;;;;;;;55.85;21.13;;;1.40;99.90;;;;;;5070432;28;20548;-75
2022/12/11 06:18:44;;;;;;;54.53;20.00;;;1.50;99.90;;;;;;5073105;28;20186;-75
2022/12/11 06:21:23;;;;;;;64.10;20.45;;;1.50;99.90;;;;;;5072050;28;20209;-81
2022/12/11 06:23:52;;;;;;;54.30;19.40;;;1.40;99.90;;;;;;5069760;28;20204;-75
2022/12/11 06:26:19;;;;;;;53.60;19.52;;;1.50;99.90;;;;;;5073945;28;20222;-75
2022/12/11 06:28:45;;;;;;;50.58;17.95;;;1.50;99.90;;;;;;5073986;28;20228;-75
2022/12/11 06:31:12;;;;;;;57.92;18.48;;;1.50;99.90;;;;;;5073885;28;20237;-75
2022/12/11 06:33:38;;;;;;;52.38;19.95;;;1.50;99.90;;;;;;5070630;28;20191;-75
2022/12/11 06:36:06;;;;;;;49.67;18.55;;;1.50;99.90;;;;;;5063186;28;20213;-75
2022/12/11 06:38:32;;;;;;;54.88;19.13;;;1.50;99.90;;;;;;5073715;28;20178;-75
2022/12/11 06:41:00;;;;;;;53.58;19.60;;;1.50;99.90;;;;;;5057058;28;20266;-75
2022/12/11 06:43:25;;;;;;;54.60;18.77;;;1.50;99.90;;;;;;5069386;28;20261;-75
2022/12/11 06:45:51;;;;;;;49.13;18.13;;;1.50;99.90;;;;;;5075070;28;20608;-75
2022/12/11 06:48:18;;;;;;;56.97;19.23;;;1.50;99.90;;;;;;5074445;28;20185;-76
2022/12/11 06:50:44;;;;;;;59.72;21.98;;;1.50;99.90;;;;;;5074298;28;20642;-74
2022/12/11 06:53:12;;;;;;;51.65;18.90;;;1.50;99.90;;;;;;5072149;28;20229;-74
2022/12/11 06:55:38;;;;;;;51.92;18.33;;;1.50;99.90;;;;;;5073719;28;20186;-75
2022/12/11 06:58:04;;;;;;;49.35;17.85;;;1.50;99.90;;;;;;5074782;28;20184;-74
2022/12/11 07:00:30;;;;;;;47.35;17.77;;;1.50;99.90;;;;;;5071774;28;20631;-74
2022/12/11 07:02:56;;;;;;;54.85;19.15;;;1.60;99.90;;;;;;5074426;28;20550;-75
2022/12/11 07:05:22;;;;;;;52.88;18.90;;;1.50;99.90;;;;;;5072185;28;20179;-74
2022/12/11 07:07:48;;;;;;;43.50;17.38;;;1.50;99.90;;;;;;5069512;28;20182;-74
2022/12/11 07:10:14;;;;;;;49.20;18.65;;;1.50;99.90;;;;;;5072555;28;20274;-75
2022/12/11 07:12:39;;;;;;;58.90;20.00;;;1.50;99.90;;;;;;5072124;28;20207;-74
2022/12/11 07:15:06;;;;;;;52.50;19.40;;;1.50;99.90;;;;;;5068633;28;20190;-74
2022/12/11 07:17:31;;;;;;;48.67;19.00;;;1.60;99.90;;;;;;5071079;28;20218;-78
2022/12/11 07:19:57;;;;;;;53.38;18.35;;;1.50;99.90;;;;;;5082219;28;20317;-74
2022/12/11 07:22:23;;;;;;;60.83;19.17;;;1.50;99.90;;;;;;5073100;28;20554;-75
2022/12/11 07:24:49;;;;;;;55.50;18.80;;;1.60;99.90;;;;;;5070874;28;20734;-76
2022/12/11 07:27:14;;;;;;;52.78;18.52;;;1.50;99.90;;;;;;5062581;28;20528;-75
2022/12/11 07:29:40;;;;;;;52.67;18.85;;;1.60;99.90;;;;;;5071427;28;20269;-75
2022/12/11 07:32:06;;;;;;;50.08;18.88;;;1.60;99.90;;;;;;5073682;28;20209;-75
2022/12/11 07:34:32;;;;;;;54.08;19.00;;;1.60;99.90;;;;;;5065127;28;20198;-74
2022/12/11 07:36:57;;;;;;;56.05;18.13;;;1.60;99.90;;;;;;5061579;28;20245;-77
2022/12/11 07:39:23;;;;;;;51.25;19.23;;;1.60;99.90;;;;;;5086772;28;20186;-74
2022/12/11 07:41:49;;;;;;;59.03;18.95;;;1.50;99.90;;;;;;5071211;28;20182;-74
2022/12/11 07:44:18;;;;;;;55.15;18.08;;;1.50;99.90;;;;;;5068174;28;20190;-81
2022/12/11 07:46:44;;;;;;;52.40;17.58;;;1.60;99.90;;;;;;5071539;28;20549;-78
2022/12/11 07:49:09;;;;;;;54.20;17.98;;;1.60;99.90;;;;;;5059768;28;20189;-75
2022/12/11 07:51:36;;;;;;;48.78;17.48;;;1.60;99.90;;;;;;5073983;28;20228;-74
2022/12/11 07:54:07;;;;;;;53.70;19.42;;;1.60;99.90;;;;;;5071205;28;20191;-76
2022/12/11 07:56:34;;;;;;;48.05;17.85;;;1.60;99.90;;;;;;5070709;28;20198;-74
2022/12/11 07:59:01;;;;;;;55.45;18.20;;;1.60;99.90;;;;;;5068784;28;20220;-74
2022/12/11 08:01:29;;;;;;;50.33;15.95;;;1.60;99.90;;;;;;5072707;28;20191;-76
2022/12/11 08:03:55;;;;;;;48.90;17.10;;;1.60;99.90;;;;;;5058143;28;20221;-79
2022/12/11 08:06:26;;;;;;;52.08;18.63;;;1.60;99.90;;;;;;5080518;28;20224;-75
2022/12/11 08:08:53;;;;;;;53.22;17.52;;;1.60;99.90;;;;;;5069852;28;20263;-75
2022/12/11 08:11:19;;;;;;;58.00;18.58;;;1.60;99.90;;;;;;5070349;28;20657;-75
2022/12/11 08:13:44;;;;;;;53.40;18.80;;;1.60;99.90;;;;;;5070729;28;20183;-75
2022/12/11 08:16:12;;;;;;;56.63;18.92;;;1.60;99.90;;;;;;5068880;28;20198;-74
2022/12/11 08:18:39;;;;;;;53.40;18.77;;;1.60;99.90;;;;;;5055784;28;20295;-74
2022/12/11 08:21:06;;;;;;;57.80;19.13;;;1.60;99.90;;;;;;5064124;28;20575;-75
2022/12/11 08:23:32;;;;;;;56.25;17.63;;;1.60;99.90;;;;;;5070584;28;20187;-74
2022/12/11 08:25:58;;;;;;;51.75;18.08;;;1.60;99.90;;;;;;5070987;28;20223;-74
2022/12/11 08:28:24;;;;;;;56.97;18.92;;;1.60;99.90;;;;;;5069335;28;20243;-75
2022/12/11 08:30:49;;;;;;;52.45;19.20;;;1.60;99.90;;;;;;5071631;28;20182;-75
2022/12/11 08:33:15;;;;;;;59.28;19.35;;;1.60;99.90;;;;;;5071168;28;20591;-74
2022/12/11 08:35:42;;;;;;;54.45;19.25;;;1.60;99.90;;;;;;5072219;28;20190;-74
2022/12/11 08:38:08;;;;;;;60.47;18.60;;;1.60;99.90;;;;;;5065722;28;20182;-80
2022/12/11 08:40:34;;;;;;;54.95;18.27;;;1.60;99.90;;;;;;5071386;28;20192;-74
2022/12/11 08:42:59;;;;;;;59.58;20.20;;;1.60;99.90;;;;;;5071607;28;20193;-74
2022/12/11 08:45:25;;;;;;;53.92;18.95;;;1.70;99.90;;;;;;5071239;28;20220;-77
2022/12/11 08:47:52;;;;;;;63.88;19.40;;;1.60;99.90;;;;;;5069895;28;20190;-75
2022/12/11 08:50:18;;;;;;;54.70;19.17;;;1.60;99.90;;;;;;5071047;28;20193;-75
2022/12/11 08:52:44;;;;;;;53.72;18.67;;;1.60;99.90;;;;;;5067144;28;20736;-75
2022/12/11 08:55:10;;;;;;;58.25;20.80;;;1.60;99.90;;;;;;5063477;28;20210;-75
2022/12/11 08:57:38;;;;;;;60.97;19.80;;;1.60;99.90;;;;;;5066698;28;20187;-75
2022/12/11 09:00:07;;;;;;;56.55;19.80;;;1.60;99.90;;;;;;5087288;28;20720;-77
2022/12/11 09:02:34;;;;;;;64.38;20.70;;;1.60;99.90;;;;;;5061932;28;20194;-77
2022/12/11 09:04:59;;;;;;;54.17;19.45;;;1.70;99.90;;;;;;5063706;28;20170;-75
2022/12/11 09:07:25;;;;;;;62.55;20.80;;;1.70;99.90;;;;;;5092806;28;20524;-75
2022/12/11 09:09:54;;;;;;;62.33;21.30;;;1.70;99.90;;;;;;5091532;28;20178;-75
2022/12/11 09:12:20;;;;;;;56.17;19.85;;;1.70;99.90;;;;;;5084991;28;20206;-77
2022/12/11 09:14:45;;;;;;;66.07;20.48;;;1.60;99.90;;;;;;5052752;28;20179;-77
2022/12/11 09:17:11;;;;;;;58.88;20.48;;;1.70;99.90;;;;;;5068449;28;20190;-76
2022/12/11 09:19:37;;;;;;;61.33;20.42;;;1.70;99.90;;;;;;5052333;28;20677;-77
2022/12/11 09:22:02;;;;;;;59.78;21.63;;;1.60;99.90;;;;;;5052475;28;20654;-77
2022/12/11 09:24:28;;;;;;;56.45;20.65;;;1.60;99.90;;;;;;5070612;28;20230;-76
2022/12/11 09:26:54;;;;;;;64.85;22.77;;;1.70;99.90;;;;;;5070420;28;20244;-76
2022/12/11 09:29:19;;;;;;;68.47;21.08;;;1.70;99.90;;;;;;5072359;28;20185;-75
2022/12/11 09:31:45;;;;;;;61.53;22.00;;;1.70;99.90;;;;;;5072386;28;20206;-75
2022/12/11 09:34:12;;;;;;;63.22;21.23;;;1.70;99.90;;;;;;5064020;28;20217;-77
2022/12/11 09:36:40;;;;;;;60.80;21.00;;;1.70;99.90;;;;;;5054582;28;20187;-77
2022/12/11 09:39:07;;;;;;;60.60;20.50;;;1.60;99.90;;;;;;5052040;28;20175;-75
2022/12/11 09:42:13;;;;;;;60.85;21.05;;;1.70;99.90;;;;;;5051087;28;20635;-75
2022/12/11 09:44:49;;;;;;;67.60;21.20;;;1.60;99.90;;;;;;5052407;28;20176;-77
2022/12/11 09:47:19;;;;;;;61.00;20.90;;;1.70;99.90;;;;;;5060638;28;20182;-74
2022/12/11 09:49:48;;;;;;;61.92;21.35;;;1.70;99.90;;;;;;5070820;28;20194;-76
2022/12/11 09:52:33;;;;;;;63.78;21.90;;;1.70;99.90;;;;;;5074896;28;20206;-75
2022/12/11 09:55:23;;;;;;;63.05;21.80;;;1.70;99.90;;;;;;5070037;28;20198;-81
2022/12/11 09:58:23;;;;;;;60.55;20.35;;;1.70;99.90;;;;;;5073025;28;20273;-74
2022/12/11 10:01:27;;;;;;;61.97;21.33;;;1.70;99.90;;;;;;5058545;28;20211;-76
2022/12/11 10:04:20;;;;;;;62.08;21.63;;;1.70;99.90;;;;;;5052569;28;20701;-77
2022/12/11 10:06:57;;;;;;;63.35;21.15;;;1.70;99.90;;;;;;5081089;28;20654;-76
2022/12/11 10:09:48;;;;;;;75.20;22.83;;;1.70;99.90;;;;;;5066439;28;20186;-77
2022/12/11 10:12:29;;;;;;;57.03;19.58;;;1.70;99.90;;;;;;5072578;28;20194;-76
2022/12/11 10:15:16;;;;;;;62.13;21.73;;;1.80;99.90;;;;;;5070066;28;20171;-76
2022/12/11 10:17:43;;;;;;;66.68;22.75;;;1.80;99.90;;;;;;5064851;28;20193;-76
2022/12/11 10:20:45;;;;;;;64.30;22.77;;;1.80;99.90;;;;;;5075576;28;20179;-75
2022/12/11 10:23:22;;;;;;;62.20;21.00;;;1.80;99.90;;;;;;5011034;28;20653;-76
2022/12/11 10:26:01;;;;;;;64.00;23.25;;;1.80;99.90;;;;;;5044219;28;20219;-77
2022/12/11 10:28:28;;;;;;;61.83;20.58;;;1.80;99.90;;;;;;5075631;28;20190;-77
2022/12/11 10:31:05;;;;;;;63.42;22.05;;;1.80;99.90;;;;;;5075537;28;20178;-78
2022/12/11 10:34:00;;;;;;;63.28;21.92;;;1.80;99.90;;;;;;5057160;28;20241;-76
2022/12/11 10:36:38;;;;;;;65.50;21.08;;;1.80;99.90;;;;;;5074874;28;20163;-75
2022/12/11 10:39:16;;;;;;;64.80;22.95;;;1.80;99.90;;;;;;5062054;28;20178;-77
2022/12/11 10:41:47;;;;;;;69.15;23.73;;;1.90;99.90;;;;;;5055455;28;20622;-76
2022/12/11 10:44:16;;;;;;;66.50;22.48;;;1.90;99.90;;;;;;5055543;28;20207;-76
2022/12/11 10:46:43;;;;;;;65.70;23.33;;;1.90;99.90;;;;;;5055144;28;20178;-75
2022/12/11 10:49:29;;;;;;;62.47;22.63;;;1.90;99.90;;;;;;5056931;28;20677;-76
2022/12/11 10:51:56;;;;;;;61.88;21.73;;;1.90;99.90;;;;;;5065354;28;20255;-76
2022/12/11 10:54:36;;;;;;;71.47;23.80;;;1.90;99.90;;;;;;5074987;28;20194;-75
2022/12/11 10:57:04;;;;;;;64.72;23.00;;;1.90;99.90;;;;;;5075062;28;20622;-74
2022/12/11 10:59:46;;;;;;;67.90;23.90;;;1.90;99.90;;;;;;5073070;28;20187;-75
2022/12/11 11:02:24;;;;;;;60.63;21.38;;;1.90;99.90;;;;;;5072921;28;20185;-75
2022/12/11 11:04:50;;;;;;;66.60;22.25;;;1.90;99.90;;;;;;5074045;28;20244;-75
2022/12/11 11:07:25;;;;;;;67.47;22.92;;;1.90;99.90;;;;;;5074150;28;20198;-76
2022/12/11 11:10:04;;;;;;;72.07;23.35;;;1.90;99.90;;;;;;5063501;28;20209;-77
2022/12/11 11:12:35;;;;;;;72.30;22.50;;;1.90;99.90;;;;;;5073078;28;20198;-76
2022/12/11 11:15:24;;;;;;;66.22;23.00;;;1.90;99.90;;;;;;5069898;28;20187;-75
2022/12/11 11:18:14;;;;;;;65.57;22.55;;;1.90;99.90;;;;;;5074821;28;20170;-75
2022/12/11 11:20:46;;;;;;;64.70;23.58;;;2.00;99.90;;;;;;5060950;28;20202;-75
2022/12/11 11:23:14;;;;;;;72.25;24.77;;;2.00;99.90;;;;;;5071394;28;20208;-79
2022/12/11 11:25:56;;;;;;;64.25;23.73;;;2.00;99.90;;;;;;5073304;28;20364;-76
2022/12/11 11:28:28;;;;;;;62.80;22.98;;;2.00;99.90;;;;;;5073738;28;20209;-78
2022/12/11 11:31:05;;;;;;;71.30;23.52;;;2.00;99.90;;;;;;5074955;28;20206;-76
2022/12/11 11:33:33;;;;;;;60.25;22.73;;;2.00;99.90;;;;;;5073100;28;20197;-80
2022/12/11 11:36:04;;;;;;;70.93;22.55;;;2.00;99.90;;;;;;5073458;28;20178;-75
2022/12/11 11:38:39;;;;;;;71.32;24.63;;;2.00;99.90;;;;;;5082786;28;20179;-76
2022/12/11 11:41:27;;;;;;;60.63;22.38;;;2.00;99.90;;;;;;5073744;28;20181;-75
2022/12/11 11:43:59;;;;;;;66.53;22.88;;;2.00;99.90;;;;;;5067954;28;20186;-76
2022/12/11 11:46:33;;;;;;;68.88;23.98;;;2.00;99.90;;;;;;5055187;28;20253;-83
2022/12/11 11:49:11;;;;;;;67.60;24.05;;;2.00;99.90;;;;;;5076262;28;20511;-75
2022/12/11 11:52:02;;;;;;;62.85;23.55;;;2.00;99.90;;;;;;5074342;28;20225;-78
2022/12/11 11:54:35;;;;;;;71.07;24.23;;;2.00;99.90;;;;;;5071488;28;20185;-78
2022/12/11 11:57:12;;;;;;;61.45;23.27;;;2.00;99.90;;;;;;5066803;28;20646;-77
2022/12/11 11:59:49;;;;;;;70.43;24.13;;;2.00;99.90;;;;;;5054929;28;20333;-77
2022/12/11 12:02:17;;;;;;;62.03;22.90;;;2.00;99.90;;;;;;5074285;28;20701;-75
2022/12/11 12:04:44;;;;;;;71.38;24.33;;;2.10;99.90;;;;;;5076125;28;20241;-80
2022/12/11 12:07:13;;;;;;;61.38;22.35;;;2.10;99.90;;;;;;5053897;28;20265;-76
2022/12/11 12:09:43;;;;;;;58.92;23.33;;;2.10;99.90;;;;;;5061159;28;20179;-83
2022/12/11 12:12:15;;;;;;;69.07;23.85;;;2.10;99.90;;;;;;5061001;28;20211;-85
2022/12/11 12:15:00;;;;;;;65.18;23.05;;;2.10;99.90;;;;;;5069087;28;20279;-84
2022/12/11 12:17:49;;;;;;;70.47;24.15;;;2.10;99.90;;;;;;5058337;28;20179;-83
2022/12/11 12:20:33;;;;;;;59.78;22.25;;;2.10;99.90;;;;;;5070171;28;20254;-76
2022/12/11 12:23:31;;;;;;;67.88;24.45;;;2.10;99.90;;;;;;5076964;28;20273;-86
2022/12/11 12:26:08;;;;;;;63.67;23.42;;;2.10;99.90;;;;;;5058522;28;20218;-85
2022/12/11 12:28:52;;;;;;;63.47;22.13;;;2.10;99.90;;;;;;5061993;28;20182;-84
2022/12/11 12:31:29;;;;;;;60.42;22.02;;;2.10;99.90;;;;;;5070675;28;20187;-86
2022/12/11 12:34:20;;;;;;;62.60;23.58;;;2.10;99.90;;;;;;5062020;28;20684;-85
2022/12/11 12:37:08;;;;;;;63.80;23.05;;;2.10;99.90;;;;;;5057044;28;20174;-88
2022/12/11 12:39:42;;;;;;;66.70;24.33;;;2.10;99.90;;;;;;5078512;28;20284;-82
2022/12/11 12:42:42;;;;;;;61.95;22.83;;;2.20;99.90;;;;;;5067512;28;20237;-82
2022/12/11 12:45:24;;;;;;;64.70;22.27;;;2.10;99.90;;;;;;5080378;28;20554;-84
2022/12/11 12:47:51;;;;;;;68.95;24.20;;;2.10;99.90;;;;;;5080264;28;20178;-83
2022/12/11 12:50:23;;;;;;;67.47;25.23;;;2.10;99.90;;;;;;5082294;28;20626;-84
2022/12/11 12:52:51;;;;;;;67.85;24.42;;;2.10;99.90;;;;;;5070685;28;20224;-84
2022/12/11 12:55:27;;;;;;;66.53;24.33;;;2.10;99.90;;;;;;5072928;28;20205;-84
2022/12/11 12:58:04;;;;;;;67.32;23.70;;;2.10;99.90;;;;;;5053079;28;20182;-81
2022/12/11 13:00:34;;;;;;;67.70;24.88;;;2.20;99.90;;;;;;5073466;28;20244;-83
2022/12/11 13:03:15;;;;;;;65.03;24.23;;;2.20;99.90;;;;;;5073440;28;20611;-75